sensor_id;sensor_type;location;lat;lon;timestamp;temperature;humidity
28189;DHT22;15471;51.166;4.470;2023-04-03T00:01:38;2.80;99.90
28189;DHT22;15471;51.166;4.470;2023-04-03T00:04:05;2.70;99.90
28189;DHT22;15471;51.166;4.470;2023-04-03T00:06:31;2.70;99.90
28189;DHT22;15471;51.166;4.470;2023-04-03T00:08:58;2.70;99.90
28189;DHT22;15471;51.166;4.470;2023-04-03T00:11:24;2.60;99.90
28189;DHT22;15471;51.166;4.470;2023-04-03T00:13:51;2.60;99.90
28189;DHT22;15471;51.166;4.470;2023-04-03T00:16:17;2.60;99.90
28189;DHT22;15471;51.166;4.470;2023-04-03T00:18:43;2.60;99.90
28189;DHT22;15471;51.166;4.470;2023-04-03T00:21:11;2.50;99.90
28189;DHT22;15471;51.166;4.470;2023-04-03T00:23:37;2.50;99.90
28189;DHT22;15471;51.166;4.470;2023-04-03T00:26:03;2.40;99.90
28189;DHT22;15471;51.166;4.470;2023-04-03T00:28:29;2.40;99.90
28189;DHT22;15471;51.166;4.470;2023-04-03T00:30:55;2.40;99.90
28189;DHT22;15471;51.166;4.470;2023-04-03T00:33:22;2.40;99.90
28189;DHT22;15471;51.166;4.470;2023-04-03T00:35:48;2.30;99.90
28189;DHT22;15471;51.166;4.470;2023-04-03T00:38:14;2.40;99.90
28189;DHT22;15471;51.166;4.470;2023-04-03T00:40:46;2.30;99.90
28189;DHT22;15471;51.166;4.470;2023-04-03T00:43:18;2.40;99.90
28189;DHT22;15471;51.166;4.470;2023-04-03T00:46:03;2.40;99.90
28189;DHT22;15471;51.166;4.470;2023-04-03T00:48:41;2.30;99.90
28189;DHT22;15471;51.166;4.470;2023-04-03T00:51:13;2.30;99.90
28189;DHT22;15471;51.166;4.470;2023-04-03T00:53:46;2.30;99.90
28189;DHT22;15471;51.166;4.470;2023-04-03T00:56:15;2.20;99.90
28189;DHT22;15471;51.166;4.470;2023-04-03T00:58:49;2.20;99.90
28189;DHT22;15471;51.166;4.470;2023-04-03T01:01:24;2.20;99.90
28189;DHT22;15471;51.166;4.470;2023-04-03T01:03:51;2.10;99.90
28189;DHT22;15471;51.166;4.470;2023-04-03T01:06:29;2.10;99.90
28189;DHT22;15471;51.166;4.470;2023-04-03T01:09:05;2.10;99.90
28189;DHT22;15471;51.166;4.470;2023-04-03T01:11:31;2.10;99.90
28189;DHT22;15471;51.166;4.470;2023-04-03T01:13:57;2.10;99.90
28189;DHT22;15471;51.166;4.470;2023-04-03T01:16:24;2.10;99.90
28189;DHT22;15471;51.166;4.470;2023-04-03T01:18:51;2.10;99.90
28189;DHT22;15471;51.166;4.470;2023-04-03T01:21:28;2.10;99.90
28189;DHT22;15471;51.166;4.470;2023-04-03T01:26:45;2.10;99.90
28189;DHT22;15471;51.166;4.470;2023-04-03T01:29:12;2.10;99.90
28189;DHT22;15471;51.166;4.470;2023-04-03T01:34:18;2.10;99.90
28189;DHT22;15471;51.166;4.470;2023-04-03T01:36:44;2.10;99.90
28189;DHT22;15471;51.166;4.470;2023-04-03T01:39:10;2.10;99.90
28189;DHT22;15471;51.166;4.470;2023-04-03T01:41:36;2.10;99.90
28189;DHT22;15471;51.166;4.470;2023-04-03T01:44:11;2.10;99.90
28189;DHT22;15471;51.166;4.470;2023-04-03T01:46:37;2.00;99.90
28189;DHT22;15471;51.166;4.470;2023-04-03T01:49:04;2.00;99.90
28189;DHT22;15471;51.166;4.470;2023-04-03T01:51:30;2.10;99.90
28189;DHT22;15471;51.166;4.470;2023-04-03T01:53:56;2.10;99.90
28189;DHT22;15471;51.166;4.470;2023-04-03T01:56:22;2.20;99.90
28189;DHT22;15471;51.166;4.470;2023-04-03T01:58:49;2.10;99.90
28189;DHT22;15471;51.166;4.470;2023-04-03T02:01:16;2.10;99.90
28189;DHT22;15471;51.166;4.470;2023-04-03T02:03:42;2.00;99.90
28189;DHT22;15471;51.166;4.470;2023-04-03T02:06:08;1.90;99.90
28189;DHT22;15471;51.166;4.470;2023-04-03T02:08:34;1.90;99.90
28189;DHT22;15471;51.166;4.470;2023-04-03T02:11:00;1.90;99.90
28189;DHT22;15471;51.166;4.470;2023-04-03T02:13:26;1.80;99.90
28189;DHT22;15471;51.166;4.470;2023-04-03T02:15:52;1.70;99.90
28189;DHT22;15471;51.166;4.470;2023-04-03T02:18:18;1.80;99.90
28189;DHT22;15471;51.166;4.470;2023-04-03T02:20:44;1.70;99.90
28189;DHT22;15471;51.166;4.470;2023-04-03T02:23:11;1.70;99.90
28189;DHT22;15471;51.166;4.470;2023-04-03T02:25:37;1.70;99.90
28189;DHT22;15471;51.166;4.470;2023-04-03T02:28:03;1.70;99.90
28189;DHT22;15471;51.166;4.470;2023-04-03T02:30:30;1.70;99.90
28189;DHT22;15471;51.166;4.470;2023-04-03T02:32:56;1.60;99.90
28189;DHT22;15471;51.166;4.470;2023-04-03T02:35:23;1.60;99.90
28189;DHT22;15471;51.166;4.470;2023-04-03T02:37:50;1.60;99.90
28189;DHT22;15471;51.166;4.470;2023-04-03T02:40:16;1.70;99.90
28189;DHT22;15471;51.166;4.470;2023-04-03T02:42:42;1.60;99.90
28189;DHT22;15471;51.166;4.470;2023-04-03T02:45:08;1.50;99.90
28189;DHT22;15471;51.166;4.470;2023-04-03T02:47:35;1.50;99.90
28189;DHT22;15471;51.166;4.470;2023-04-03T02:50:01;1.60;99.90
28189;DHT22;15471;51.166;4.470;2023-04-03T02:52:27;1.50;99.90
28189;DHT22;15471;51.166;4.470;2023-04-03T02:54:55;1.60;99.90
28189;DHT22;15471;51.166;4.470;2023-04-03T02:57:21;1.50;99.90
28189;DHT22;15471;51.166;4.470;2023-04-03T02:59:48;1.50;99.90
28189;DHT22;15471;51.166;4.470;2023-04-03T03:02:14;1.50;99.90
28189;DHT22;15471;51.166;4.470;2023-04-03T03:04:40;1.40;99.90
28189;DHT22;15471;51.166;4.470;2023-04-03T03:07:06;1.50;99.90
28189;DHT22;15471;51.166;4.470;2023-04-03T03:09:33;1.50;99.90
28189;DHT22;15471;51.166;4.470;2023-04-03T03:11:59;1.50;99.90
28189;DHT22;15471;51.166;4.470;2023-04-03T03:14:25;1.40;99.90
28189;DHT22;15471;51.166;4.470;2023-04-03T03:16:51;1.40;99.90
28189;DHT22;15471;51.166;4.470;2023-04-03T03:19:17;1.40;99.90
28189;DHT22;15471;51.166;4.470;2023-04-03T03:21:43;1.40;99.90
28189;DHT22;15471;51.166;4.470;2023-04-03T03:24:09;1.40;99.90
28189;DHT22;15471;51.166;4.470;2023-04-03T03:26:35;1.40;99.90
28189;DHT22;15471;51.166;4.470;2023-04-03T03:29:02;1.50;99.90
28189;DHT22;15471;51.166;4.470;2023-04-03T03:31:29;1.40;99.90
28189;DHT22;15471;51.166;4.470;2023-04-03T03:33:55;1.50;99.90
28189;DHT22;15471;51.166;4.470;2023-04-03T03:36:22;1.50;99.90
28189;DHT22;15471;51.166;4.470;2023-04-03T03:38:48;1.50;99.90
28189;DHT22;15471;51.166;4.470;2023-04-03T03:41:14;1.50;99.90
28189;DHT22;15471;51.166;4.470;2023-04-03T03:43:42;1.50;99.90
28189;DHT22;15471;51.166;4.470;2023-04-03T03:46:08;1.50;99.90
28189;DHT22;15471;51.166;4.470;2023-04-03T03:48:34;1.40;99.90
28189;DHT22;15471;51.166;4.470;2023-04-03T03:51:01;1.50;99.90
28189;DHT22;15471;51.166;4.470;2023-04-03T03:53:31;1.40;99.90
28189;DHT22;15471;51.166;4.470;2023-04-03T03:56:02;1.40;99.90
28189;DHT22;15471;51.166;4.470;2023-04-03T03:58:30;1.40;99.90
28189;DHT22;15471;51.166;4.470;2023-04-03T04:00:56;1.40;99.90
28189;DHT22;15471;51.166;4.470;2023-04-03T04:03:22;1.40;99.90
28189;DHT22;15471;51.166;4.470;2023-04-03T04:05:50;1.40;99.90
28189;DHT22;15471;51.166;4.470;2023-04-03T04:08:17;1.40;99.90
28189;DHT22;15471;51.166;4.470;2023-04-03T04:10:45;1.40;99.90
28189;DHT22;15471;51.166;4.470;2023-04-03T04:13:13;1.40;99.90
28189;DHT22;15471;51.166;4.470;2023-04-03T04:15:40;1.30;99.90
28189;DHT22;15471;51.166;4.470;2023-04-03T04:18:06;1.40;99.90
28189;DHT22;15471;51.166;4.470;2023-04-03T04:20:32;1.40;99.90
28189;DHT22;15471;51.166;4.470;2023-04-03T04:22:58;1.30;99.90
28189;DHT22;15471;51.166;4.470;2023-04-03T04:25:26;1.30;99.90
28189;DHT22;15471;51.166;4.470;2023-04-03T04:27:52;1.30;99.90
28189;DHT22;15471;51.166;4.470;2023-04-03T04:30:19;1.30;99.90
28189;DHT22;15471;51.166;4.470;2023-04-03T04:32:48;1.30;99.90
28189;DHT22;15471;51.166;4.470;2023-04-03T04:35:15;1.30;99.90
28189;DHT22;15471;51.166;4.470;2023-04-03T04:37:43;1.30;99.90
28189;DHT22;15471;51.166;4.470;2023-04-03T04:40:10;1.20;99.90
28189;DHT22;15471;51.166;4.470;2023-04-03T04:42:37;1.20;99.90
28189;DHT22;15471;51.166;4.470;2023-04-03T04:45:03;1.20;99.90
28189;DHT22;15471;51.166;4.470;2023-04-03T04:47:30;1.20;99.90
28189;DHT22;15471;51.166;4.470;2023-04-03T04:49:56;1.20;99.90
28189;DHT22;15471;51.166;4.470;2023-04-03T04:52:23;1.20;99.90
28189;DHT22;15471;51.166;4.470;2023-04-03T04:54:49;1.20;99.90
28189;DHT22;15471;51.166;4.470;2023-04-03T04:57:15;1.20;99.90
28189;DHT22;15471;51.166;4.470;2023-04-03T04:59:42;1.10;99.90
28189;DHT22;15471;51.166;4.470;2023-04-03T05:02:08;1.10;99.90
28189;DHT22;15471;51.166;4.470;2023-04-03T05:04:35;1.10;99.90
28189;DHT22;15471;51.166;4.470;2023-04-03T05:07:07;1.10;99.90
28189;DHT22;15471;51.166;4.470;2023-04-03T05:09:35;1.10;99.90
28189;DHT22;15471;51.166;4.470;2023-04-03T05:12:01;1.10;99.90
28189;DHT22;15471;51.166;4.470;2023-04-03T05:14:33;1.10;99.90
28189;DHT22;15471;51.166;4.470;2023-04-03T05:17:03;1.10;99.90
28189;DHT22;15471;51.166;4.470;2023-04-03T05:19:33;1.10;99.90
28189;DHT22;15471;51.166;4.470;2023-04-03T05:22:00;1.10;99.90
28189;DHT22;15471;51.166;4.470;2023-04-03T05:24:28;1.20;99.90
28189;DHT22;15471;51.166;4.470;2023-04-03T05:26:54;1.10;99.90
28189;DHT22;15471;51.166;4.470;2023-04-03T05:29:21;1.20;99.90
28189;DHT22;15471;51.166;4.470;2023-04-03T05:31:49;1.10;99.90
28189;DHT22;15471;51.166;4.470;2023-04-03T05:34:16;1.10;99.90
28189;DHT22;15471;51.166;4.470;2023-04-03T05:36:43;1.10;99.90
28189;DHT22;15471;51.166;4.470;2023-04-03T05:39:11;1.10;99.90
28189;DHT22;15471;51.166;4.470;2023-04-03T05:41:41;1.10;99.90
28189;DHT22;15471;51.166;4.470;2023-04-03T05:44:07;1.10;99.90
28189;DHT22;15471;51.166;4.470;2023-04-03T05:46:33;1.20;99.90
28189;DHT22;15471;51.166;4.470;2023-04-03T05:49:03;1.20;99.90
28189;DHT22;15471;51.166;4.470;2023-04-03T05:51:34;1.30;99.90
28189;DHT22;15471;51.166;4.470;2023-04-03T05:54:28;1.30;99.90
28189;DHT22;15471;51.166;4.470;2023-04-03T05:57:01;1.30;99.90
28189;DHT22;15471;51.166;4.470;2023-04-03T05:59:27;1.30;99.90
28189;DHT22;15471;51.166;4.470;2023-04-03T06:01:56;1.30;99.90
28189;DHT22;15471;51.166;4.470;2023-04-03T06:04:23;1.40;99.90
28189;DHT22;15471;51.166;4.470;2023-04-03T06:06:57;1.50;99.90
28189;DHT22;15471;51.166;4.470;2023-04-03T06:09:26;1.50;99.90
28189;DHT22;15471;51.166;4.470;2023-04-03T06:11:53;1.50;99.90
28189;DHT22;15471;51.166;4.470;2023-04-03T06:14:21;1.60;99.90
28189;DHT22;15471;51.166;4.470;2023-04-03T06:16:47;1.60;99.90
28189;DHT22;15471;51.166;4.470;2023-04-03T06:19:13;1.70;99.90
28189;DHT22;15471;51.166;4.470;2023-04-03T06:21:45;1.70;99.90
28189;DHT22;15471;51.166;4.470;2023-04-03T06:24:15;1.90;99.90
28189;DHT22;15471;51.166;4.470;2023-04-03T06:26:42;1.90;99.90
28189;DHT22;15471;51.166;4.470;2023-04-03T06:29:09;2.00;99.90
28189;DHT22;15471;51.166;4.470;2023-04-03T06:31:36;2.10;99.90
28189;DHT22;15471;51.166;4.470;2023-04-03T06:34:03;2.20;99.90
28189;DHT22;15471;51.166;4.470;2023-04-03T06:36:29;2.10;99.90
28189;DHT22;15471;51.166;4.470;2023-04-03T06:38:55;2.20;99.90
28189;DHT22;15471;51.166;4.470;2023-04-03T06:41:21;2.20;99.90
28189;DHT22;15471;51.166;4.470;2023-04-03T06:43:48;2.20;99.90
28189;DHT22;15471;51.166;4.470;2023-04-03T06:46:18;2.40;99.90
28189;DHT22;15471;51.166;4.470;2023-04-03T06:48:45;2.50;99.90
28189;DHT22;15471;51.166;4.470;2023-04-03T06:51:26;2.50;99.90
28189;DHT22;15471;51.166;4.470;2023-04-03T06:53:54;2.70;99.90
28189;DHT22;15471;51.166;4.470;2023-04-03T06:56:21;2.80;99.90
28189;DHT22;15471;51.166;4.470;2023-04-03T06:58:48;2.90;99.90
28189;DHT22;15471;51.166;4.470;2023-04-03T07:01:15;2.90;99.90
28189;DHT22;15471;51.166;4.470;2023-04-03T07:03:42;3.00;99.90
28189;DHT22;15471;51.166;4.470;2023-04-03T07:06:11;3.10;99.90
28189;DHT22;15471;51.166;4.470;2023-04-03T07:08:38;3.30;99.90
28189;DHT22;15471;51.166;4.470;2023-04-03T07:11:05;3.40;99.90
28189;DHT22;15471;51.166;4.470;2023-04-03T07:13:31;3.50;99.90
28189;DHT22;15471;51.166;4.470;2023-04-03T07:15:58;3.40;99.90
28189;DHT22;15471;51.166;4.470;2023-04-03T07:18:25;3.50;99.90
28189;DHT22;15471;51.166;4.470;2023-04-03T07:20:51;3.50;99.90
28189;DHT22;15471;51.166;4.470;2023-04-03T07:23:18;3.50;99.90
28189;DHT22;15471;51.166;4.470;2023-04-03T07:25:51;3.50;99.90
28189;DHT22;15471;51.166;4.470;2023-04-03T07:28:18;3.60;99.90
28189;DHT22;15471;51.166;4.470;2023-04-03T07:30:54;3.60;99.90
28189;DHT22;15471;51.166;4.470;2023-04-03T07:33:24;3.70;99.90
28189;DHT22;15471;51.166;4.470;2023-04-03T07:35:51;3.80;99.90
28189;DHT22;15471;51.166;4.470;2023-04-03T07:38:17;3.90;99.90
28189;DHT22;15471;51.166;4.470;2023-04-03T07:40:47;3.90;99.90
28189;DHT22;15471;51.166;4.470;2023-04-03T07:43:17;3.90;99.90
28189;DHT22;15471;51.166;4.470;2023-04-03T07:45:43;4.00;99.90
28189;DHT22;15471;51.166;4.470;2023-04-03T07:48:13;4.20;99.90
28189;DHT22;15471;51.166;4.470;2023-04-03T07:50:42;4.30;99.90
28189;DHT22;15471;51.166;4.470;2023-04-03T07:53:09;4.30;99.90
28189;DHT22;15471;51.166;4.470;2023-04-03T07:55:50;4.40;99.90
28189;DHT22;15471;51.166;4.470;2023-04-03T07:58:21;4.40;99.90
28189;DHT22;15471;51.166;4.470;2023-04-03T08:00:48;4.40;99.90
28189;DHT22;15471;51.166;4.470;2023-04-03T08:03:14;4.60;99.90
28189;DHT22;15471;51.166;4.470;2023-04-03T08:05:44;4.70;99.90
28189;DHT22;15471;51.166;4.470;2023-04-03T08:08:12;4.70;99.90
28189;DHT22;15471;51.166;4.470;2023-04-03T08:10:39;4.80;99.90
28189;DHT22;15471;51.166;4.470;2023-04-03T08:13:05;4.90;99.90
28189;DHT22;15471;51.166;4.470;2023-04-03T08:15:32;4.80;99.90
28189;DHT22;15471;51.166;4.470;2023-04-03T08:17:59;4.90;99.90
28189;DHT22;15471;51.166;4.470;2023-04-03T08:20:27;5.10;99.90
28189;DHT22;15471;51.166;4.470;2023-04-03T08:22:53;5.20;99.90
28189;DHT22;15471;51.166;4.470;2023-04-03T08:25:23;5.30;99.90
28189;DHT22;15471;51.166;4.470;2023-04-03T08:27:50;5.40;99.90
28189;DHT22;15471;51.166;4.470;2023-04-03T08:30:16;5.60;99.90
28189;DHT22;15471;51.166;4.470;2023-04-03T08:32:43;5.70;99.90
28189;DHT22;15471;51.166;4.470;2023-04-03T08:35:10;5.70;99.90
28189;DHT22;15471;51.166;4.470;2023-04-03T08:37:39;5.70;99.90
28189;DHT22;15471;51.166;4.470;2023-04-03T08:40:07;5.70;99.90
28189;DHT22;15471;51.166;4.470;2023-04-03T08:45:45;6.80;99.90
28189;DHT22;15471;51.166;4.470;2023-04-03T08:50:53;10.80;99.90
28189;DHT22;15471;51.166;4.470;2023-04-03T08:53:23;12.10;99.90
28189;DHT22;15471;51.166;4.470;2023-04-03T08:55:51;13.20;99.90
28189;DHT22;15471;51.166;4.470;2023-04-03T08:58:36;13.90;99.90
28189;DHT22;15471;51.166;4.470;2023-04-03T09:03:46;12.40;99.90
28189;DHT22;15471;51.166;4.470;2023-04-03T09:06:20;13.60;99.90
28189;DHT22;15471;51.166;4.470;2023-04-03T09:11:41;12.50;99.90
28189;DHT22;15471;51.166;4.470;2023-04-03T09:22:46;11.10;99.90
28189;DHT22;15471;51.166;4.470;2023-04-03T09:25:17;11.60;99.90
28189;DHT22;15471;51.166;4.470;2023-04-03T09:27:44;12.80;99.90
28189;DHT22;15471;51.166;4.470;2023-04-03T09:30:17;12.60;99.90
28189;DHT22;15471;51.166;4.470;2023-04-03T09:32:49;12.10;99.90
28189;DHT22;15471;51.166;4.470;2023-04-03T09:37:44;11.10;99.90
28189;DHT22;15471;51.166;4.470;2023-04-03T09:40:31;10.40;99.90
28189;DHT22;15471;51.166;4.470;2023-04-03T09:43:01;10.70;99.90
28189;DHT22;15471;51.166;4.470;2023-04-03T09:45:32;10.90;99.90
28189;DHT22;15471;51.166;4.470;2023-04-03T09:51:02;10.40;99.90
28189;DHT22;15471;51.166;4.470;2023-04-03T09:53:30;10.10;99.90
28189;DHT22;15471;51.166;4.470;2023-04-03T09:55:57;10.00;99.90
28189;DHT22;15471;51.166;4.470;2023-04-03T09:58:32;9.50;99.90
28189;DHT22;15471;51.166;4.470;2023-04-03T10:01:01;9.60;99.90
28189;DHT22;15471;51.166;4.470;2023-04-03T10:03:29;9.70;99.90
28189;DHT22;15471;51.166;4.470;2023-04-03T10:05:55;9.90;99.90
28189;DHT22;15471;51.166;4.470;2023-04-03T10:08:27;9.60;99.90
28189;DHT22;15471;51.166;4.470;2023-04-03T10:11:15;9.70;99.90
28189;DHT22;15471;51.166;4.470;2023-04-03T10:13:55;9.60;99.90
28189;DHT22;15471;51.166;4.470;2023-04-03T10:16:51;9.70;99.90
28189;DHT22;15471;51.166;4.470;2023-04-03T10:25:10;9.80;99.90
28189;DHT22;15471;51.166;4.470;2023-04-03T10:36:12;9.50;99.90
28189;DHT22;15471;51.166;4.470;2023-04-03T10:38:43;9.50;99.90
28189;DHT22;15471;51.166;4.470;2023-04-03T10:41:17;9.10;99.90
28189;DHT22;15471;51.166;4.470;2023-04-03T10:49:17;9.30;99.90
28189;DHT22;15471;51.166;4.470;2023-04-03T10:52:02;9.30;99.90
28189;DHT22;15471;51.166;4.470;2023-04-03T10:57:01;9.20;99.90
28189;DHT22;15471;51.166;4.470;2023-04-03T11:02:23;9.30;99.90
28189;DHT22;15471;51.166;4.470;2023-04-03T11:04:55;9.40;99.90
28189;DHT22;15471;51.166;4.470;2023-04-03T11:07:37;9.40;99.90
28189;DHT22;15471;51.166;4.470;2023-04-03T11:10:12;9.30;98.40
28189;DHT22;15471;51.166;4.470;2023-04-03T11:12:56;9.30;99.70
28189;DHT22;15471;51.166;4.470;2023-04-03T11:15:24;9.20;98.60
28189;DHT22;15471;51.166;4.470;2023-04-03T11:17:55;9.30;99.90
28189;DHT22;15471;51.166;4.470;2023-04-03T11:20:28;9.30;95.90
28189;DHT22;15471;51.166;4.470;2023-04-03T11:23:26;9.30;95.30
28189;DHT22;15471;51.166;4.470;2023-04-03T11:26:00;9.30;92.70
28189;DHT22;15471;51.166;4.470;2023-04-03T11:28:32;9.40;96.30
28189;DHT22;15471;51.166;4.470;2023-04-03T11:34:34;9.40;94.50
28189;DHT22;15471;51.166;4.470;2023-04-03T11:37:16;9.30;93.70
28189;DHT22;15471;51.166;4.470;2023-04-03T11:39:53;9.40;94.50
28189;DHT22;15471;51.166;4.470;2023-04-03T11:42:34;9.40;92.90
28189;DHT22;15471;51.166;4.470;2023-04-03T11:47:54;9.50;92.00
28189;DHT22;15471;51.166;4.470;2023-04-03T12:13:40;9.50;80.00
28189;DHT22;15471;51.166;4.470;2023-04-03T12:35:21;9.70;77.70
28189;DHT22;15471;51.166;4.470;2023-04-03T12:40:51;9.50;79.60
28189;DHT22;15471;51.166;4.470;2023-04-03T12:43:42;9.60;75.90
28189;DHT22;15471;51.166;4.470;2023-04-03T12:46:15;9.60;77.60
28189;DHT22;15471;51.166;4.470;2023-04-03T12:51:19;9.70;77.30
28189;DHT22;15471;51.166;4.470;2023-04-03T12:53:46;9.70;74.40
28189;DHT22;15471;51.166;4.470;2023-04-03T12:58:46;9.70;78.60
28189;DHT22;15471;51.166;4.470;2023-04-03T13:01:16;9.80;81.90
28189;DHT22;15471;51.166;4.470;2023-04-03T13:03:56;9.80;78.60
28189;DHT22;15471;51.166;4.470;2023-04-03T13:06:49;9.70;76.80
28189;DHT22;15471;51.166;4.470;2023-04-03T13:09:26;9.70;78.70
28189;DHT22;15471;51.166;4.470;2023-04-03T13:12:15;9.70;78.50
28189;DHT22;15471;51.166;4.470;2023-04-03T13:14:54;9.80;83.80
28189;DHT22;15471;51.166;4.470;2023-04-03T13:17:24;10.00;83.50
28189;DHT22;15471;51.166;4.470;2023-04-03T13:19:50;10.00;80.60
28189;DHT22;15471;51.166;4.470;2023-04-03T13:22:38;10.00;83.10
28189;DHT22;15471;51.166;4.470;2023-04-03T13:25:12;10.10;82.50
28189;DHT22;15471;51.166;4.470;2023-04-03T13:27:40;10.20;77.60
28189;DHT22;15471;51.166;4.470;2023-04-03T13:30:39;10.10;79.00
28189;DHT22;15471;51.166;4.470;2023-04-03T13:33:21;10.30;81.40
28189;DHT22;15471;51.166;4.470;2023-04-03T13:35:47;10.20;76.60
28189;DHT22;15471;51.166;4.470;2023-04-03T13:38:24;10.30;79.00
28189;DHT22;15471;51.166;4.470;2023-04-03T13:40:56;10.30;79.40
28189;DHT22;15471;51.166;4.470;2023-04-03T13:43:25;10.10;79.90
28189;DHT22;15471;51.166;4.470;2023-04-03T13:46:05;10.10;78.50
28189;DHT22;15471;51.166;4.470;2023-04-03T13:48:43;10.30;81.10
28189;DHT22;15471;51.166;4.470;2023-04-03T13:53:48;10.70;77.50
28189;DHT22;15471;51.166;4.470;2023-04-03T13:56:33;10.90;72.90
28189;DHT22;15471;51.166;4.470;2023-04-03T13:59:19;11.00;77.50
28189;DHT22;15471;51.166;4.470;2023-04-03T14:02:14;11.10;78.40
28189;DHT22;15471;51.166;4.470;2023-04-03T14:07:10;10.80;77.90
28189;DHT22;15471;51.166;4.470;2023-04-03T14:09:36;10.70;73.90
28189;DHT22;15471;51.166;4.470;2023-04-03T14:12:07;10.50;74.50
28189;DHT22;15471;51.166;4.470;2023-04-03T14:14:43;10.50;75.70
28189;DHT22;15471;51.166;4.470;2023-04-03T14:17:23;10.70;77.70
28189;DHT22;15471;51.166;4.470;2023-04-03T14:19:51;10.70;75.00
28189;DHT22;15471;51.166;4.470;2023-04-03T14:22:22;10.70;74.40
28189;DHT22;15471;51.166;4.470;2023-04-03T14:24:49;10.60;71.50
28189;DHT22;15471;51.166;4.470;2023-04-03T14:27:22;10.50;75.00
28189;DHT22;15471;51.166;4.470;2023-04-03T14:29:50;10.50;75.30
28189;DHT22;15471;51.166;4.470;2023-04-03T14:32:19;10.60;76.60
28189;DHT22;15471;51.166;4.470;2023-04-03T14:34:46;10.70;77.60
28189;DHT22;15471;51.166;4.470;2023-04-03T14:37:18;10.70;76.90
28189;DHT22;15471;51.166;4.470;2023-04-03T14:39:46;10.80;76.90
28189;DHT22;15471;51.166;4.470;2023-04-03T14:42:18;10.90;74.50
28189;DHT22;15471;51.166;4.470;2023-04-03T14:44:45;10.90;73.20
28189;DHT22;15471;51.166;4.470;2023-04-03T14:47:16;10.80;75.50
28189;DHT22;15471;51.166;4.470;2023-04-03T14:49:43;10.70;73.40
28189;DHT22;15471;51.166;4.470;2023-04-03T14:52:30;10.80;77.40
28189;DHT22;15471;51.166;4.470;2023-04-03T14:54:57;10.80;75.20
28189;DHT22;15471;51.166;4.470;2023-04-03T14:57:25;10.90;76.00
28189;DHT22;15471;51.166;4.470;2023-04-03T14:59:51;10.90;75.00
28189;DHT22;15471;51.166;4.470;2023-04-03T15:02:26;10.80;73.80
28189;DHT22;15471;51.166;4.470;2023-04-03T15:04:56;10.70;70.70
28189;DHT22;15471;51.166;4.470;2023-04-03T15:07:27;10.60;73.20
28189;DHT22;15471;51.166;4.470;2023-04-03T15:09:54;10.70;74.50
28189;DHT22;15471;51.166;4.470;2023-04-03T15:12:23;10.70;71.60
28189;DHT22;15471;51.166;4.470;2023-04-03T15:14:49;10.80;72.00
28189;DHT22;15471;51.166;4.470;2023-04-03T15:17:18;10.90;73.30
28189;DHT22;15471;51.166;4.470;2023-04-03T15:19:46;10.90;72.50
28189;DHT22;15471;51.166;4.470;2023-04-03T15:22:19;10.80;71.00
28189;DHT22;15471;51.166;4.470;2023-04-03T15:24:47;10.80;70.00
28189;DHT22;15471;51.166;4.470;2023-04-03T15:27:13;10.70;69.90
28189;DHT22;15471;51.166;4.470;2023-04-03T15:29:43;10.70;73.20
28189;DHT22;15471;51.166;4.470;2023-04-03T15:32:11;10.70;74.80
28189;DHT22;15471;51.166;4.470;2023-04-03T15:34:38;10.80;70.10
28189;DHT22;15471;51.166;4.470;2023-04-03T15:37:04;10.80;73.70
28189;DHT22;15471;51.166;4.470;2023-04-03T15:39:31;10.70;69.70
28189;DHT22;15471;51.166;4.470;2023-04-03T15:41:59;10.50;73.40
28189;DHT22;15471;51.166;4.470;2023-04-03T15:44:33;10.70;74.20
28189;DHT22;15471;51.166;4.470;2023-04-03T15:46:59;10.80;74.00
28189;DHT22;15471;51.166;4.470;2023-04-03T15:49:26;10.90;74.60
28189;DHT22;15471;51.166;4.470;2023-04-03T15:51:52;11.00;74.30
28189;DHT22;15471;51.166;4.470;2023-04-03T15:54:25;11.00;75.20
28189;DHT22;15471;51.166;4.470;2023-04-03T15:56:52;10.90;73.80
28189;DHT22;15471;51.166;4.470;2023-04-03T15:59:18;11.00;72.70
28189;DHT22;15471;51.166;4.470;2023-04-03T16:01:44;11.00;74.10
28189;DHT22;15471;51.166;4.470;2023-04-03T16:04:11;10.90;71.90
28189;DHT22;15471;51.166;4.470;2023-04-03T16:06:38;10.80;72.90
28189;DHT22;15471;51.166;4.470;2023-04-03T16:09:04;10.80;74.30
28189;DHT22;15471;51.166;4.470;2023-04-03T16:11:31;10.70;73.50
28189;DHT22;15471;51.166;4.470;2023-04-03T16:13:57;10.80;74.20
28189;DHT22;15471;51.166;4.470;2023-04-03T16:16:23;11.40;73.80
28189;DHT22;15471;51.166;4.470;2023-04-03T16:18:50;13.40;65.80
28189;DHT22;15471;51.166;4.470;2023-04-03T16:21:17;15.60;64.90
28189;DHT22;15471;51.166;4.470;2023-04-03T16:23:44;17.90;59.60
28189;DHT22;15471;51.166;4.470;2023-04-03T16:26:10;19.90;54.60
28189;DHT22;15471;51.166;4.470;2023-04-03T16:28:36;21.10;49.80
28189;DHT22;15471;51.166;4.470;2023-04-03T16:31:03;20.80;48.50
28189;DHT22;15471;51.166;4.470;2023-04-03T16:33:29;20.60;46.80
28189;DHT22;15471;51.166;4.470;2023-04-03T16:35:55;20.40;47.10
28189;DHT22;15471;51.166;4.470;2023-04-03T16:38:21;21.70;45.70
28189;DHT22;15471;51.166;4.470;2023-04-03T16:40:48;23.10;43.30
28189;DHT22;15471;51.166;4.470;2023-04-03T16:43:15;25.30;40.20
28189;DHT22;15471;51.166;4.470;2023-04-03T16:45:42;26.90;37.10
28189;DHT22;15471;51.166;4.470;2023-04-03T16:48:08;28.10;35.20
28189;DHT22;15471;51.166;4.470;2023-04-03T16:50:34;29.00;32.90
28189;DHT22;15471;51.166;4.470;2023-04-03T16:53:00;27.80;33.10
28189;DHT22;15471;51.166;4.470;2023-04-03T16:55:28;26.00;33.60
28189;DHT22;15471;51.166;4.470;2023-04-03T16:57:55;25.30;34.20
28189;DHT22;15471;51.166;4.470;2023-04-03T17:00:21;24.50;34.50
28189;DHT22;15471;51.166;4.470;2023-04-03T17:02:47;23.60;35.60
28189;DHT22;15471;51.166;4.470;2023-04-03T17:05:13;21.60;37.70
28189;DHT22;15471;51.166;4.470;2023-04-03T17:07:39;19.00;42.20
28189;DHT22;15471;51.166;4.470;2023-04-03T17:10:06;16.40;45.70
28189;DHT22;15471;51.166;4.470;2023-04-03T17:12:32;14.50;49.50
28189;DHT22;15471;51.166;4.470;2023-04-03T17:14:58;13.30;52.70
28189;DHT22;15471;51.166;4.470;2023-04-03T17:17:25;12.40;54.90
28189;DHT22;15471;51.166;4.470;2023-04-03T17:23:38;11.30;58.90
28189;DHT22;15471;51.166;4.470;2023-04-03T17:29:21;10.60;60.40
28189;DHT22;15471;51.166;4.470;2023-04-03T17:31:47;10.40;63.50
28189;DHT22;15471;51.166;4.470;2023-04-03T17:34:13;10.20;64.20
28189;DHT22;15471;51.166;4.470;2023-04-03T17:36:40;10.00;66.10
28189;DHT22;15471;51.166;4.470;2023-04-03T17:39:08;9.90;68.40
28189;DHT22;15471;51.166;4.470;2023-04-03T17:41:34;9.70;69.70
28189;DHT22;15471;51.166;4.470;2023-04-03T17:44:01;9.70;70.60
28189;DHT22;15471;51.166;4.470;2023-04-03T17:46:27;9.50;70.90
28189;DHT22;15471;51.166;4.470;2023-04-03T17:48:54;9.40;71.70
28189;DHT22;15471;51.166;4.470;2023-04-03T17:51:24;9.20;74.20
28189;DHT22;15471;51.166;4.470;2023-04-03T17:53:50;9.10;74.80
28189;DHT22;15471;51.166;4.470;2023-04-03T17:56:20;9.00;75.30
28189;DHT22;15471;51.166;4.470;2023-04-03T17:58:48;8.90;75.40
28189;DHT22;15471;51.166;4.470;2023-04-03T18:01:17;8.90;75.60